createdAt,value
2023-03-10T00:00:46.181Z,1.80
2023-03-10T00:03:12.897Z,1.80
2023-03-10T00:05:39.907Z,1.80
2023-03-10T00:08:07.361Z,1.80
2023-03-10T00:10:34.141Z,1.80
2023-03-10T00:13:00.982Z,1.90
2023-03-10T00:15:27.859Z,1.80
2023-03-10T00:17:54.661Z,1.80
2023-03-10T00:20:23.242Z,1.80
2023-03-10T00:22:50.035Z,1.80
2023-03-10T00:25:16.942Z,1.80
2023-03-10T00:27:43.829Z,1.80
2023-03-10T00:30:11.108Z,1.80
2023-03-10T00:32:37.889Z,1.80
2023-03-10T00:35:06.079Z,1.80
2023-03-10T00:37:36.203Z,1.80
2023-03-10T00:40:03.314Z,1.80
2023-03-10T00:42:30.208Z,1.80
2023-03-10T00:44:57.051Z,1.80
2023-03-10T00:47:24.000Z,1.80
2023-03-10T00:49:50.944Z,1.80
2023-03-10T00:52:19.523Z,1.80
2023-03-10T00:54:46.287Z,1.80
2023-03-10T00:57:16.086Z,1.80
2023-03-10T00:59:50.286Z,1.80
2023-03-10T01:02:19.520Z,1.80
2023-03-10T01:04:47.478Z,1.80
2023-03-10T01:07:14.296Z,1.80
2023-03-10T01:09:41.195Z,1.80
2023-03-10T01:12:08.391Z,1.80
2023-03-10T01:14:35.234Z,1.80
2023-03-10T01:17:02.069Z,1.80
2023-03-10T01:19:30.321Z,1.80
2023-03-10T01:21:57.137Z,1.80
2023-03-10T01:24:24.033Z,1.80
2023-03-10T01:26:50.786Z,1.70
2023-03-10T01:29:17.551Z,1.80
2023-03-10T01:31:44.352Z,1.80
2023-03-10T01:34:11.096Z,1.70
2023-03-10T01:36:37.905Z,1.80
2023-03-10T01:39:04.772Z,1.80
2023-03-10T01:41:31.613Z,1.70
2023-03-10T01:43:58.404Z,1.80
2023-03-10T01:46:36.505Z,1.80
2023-03-10T01:49:19.036Z,1.80
2023-03-10T01:52:06.083Z,1.80
2023-03-10T01:55:09.993Z,1.80
2023-03-10T01:57:43.747Z,1.80
2023-03-10T02:00:11.312Z,1.70
2023-03-10T02:02:45.061Z,1.70
2023-03-10T02:05:13.915Z,1.70
2023-03-10T02:07:43.205Z,1.70
2023-03-10T02:10:12.852Z,1.70
2023-03-10T02:12:39.819Z,1.70
2023-03-10T02:15:08.023Z,1.70
2023-03-10T02:17:35.006Z,1.70
2023-03-10T02:20:19.789Z,1.70
2023-03-10T02:22:47.451Z,1.70
2023-03-10T02:25:20.584Z,1.80
2023-03-10T02:27:47.427Z,1.70
2023-03-10T02:30:23.707Z,1.70
2023-03-10T02:32:57.600Z,1.80
2023-03-10T02:35:24.695Z,1.80
2023-03-10T02:37:51.792Z,1.70
2023-03-10T02:40:34.064Z,1.80
2023-03-10T02:43:07.664Z,1.80
2023-03-10T02:45:37.701Z,1.80
2023-03-10T02:48:09.715Z,1.80
2023-03-10T02:50:38.538Z,1.70
2023-03-10T02:53:18.003Z,1.80
2023-03-10T02:55:45.049Z,1.80
2023-03-10T02:58:12.160Z,1.70
2023-03-10T03:00:40.428Z,1.70
2023-03-10T03:03:09.102Z,1.70
2023-03-10T03:05:36.770Z,1.70
2023-03-10T03:08:05.457Z,1.80
2023-03-10T03:10:33.578Z,1.70
2023-03-10T03:13:00.365Z,1.80
2023-03-10T03:15:27.675Z,1.70
2023-03-10T03:17:54.520Z,1.80
2023-03-10T03:20:21.982Z,1.80
2023-03-10T03:22:48.763Z,1.80
2023-03-10T03:25:18.448Z,1.80
2023-03-10T03:27:45.872Z,1.90
2023-03-10T03:30:22.040Z,1.80
2023-03-10T03:32:49.474Z,1.80
2023-03-10T03:35:26.298Z,1.80
2023-03-10T03:37:54.535Z,1.80
2023-03-10T03:40:22.402Z,1.80
2023-03-10T03:42:50.841Z,1.80
2023-03-10T03:45:20.553Z,1.80
2023-03-10T03:47:47.740Z,1.80
2023-03-10T03:50:15.768Z,1.80
2023-03-10T03:52:43.569Z,1.80
2023-03-10T03:55:12.605Z,1.80
2023-03-10T03:57:39.507Z,1.80
2023-03-10T04:00:09.803Z,1.80
2023-03-10T04:02:36.577Z,1.80
2023-03-10T04:05:03.910Z,1.80
2023-03-10T04:07:31.199Z,1.80
2023-03-10T04:09:57.941Z,1.80
2023-03-10T04:12:24.743Z,1.80
2023-03-10T04:14:51.562Z,1.80
2023-03-10T04:17:18.343Z,1.80
2023-03-10T04:19:51.326Z,1.80
2023-03-10T04:22:24.063Z,1.80
2023-03-10T04:24:50.952Z,1.80
2023-03-10T04:27:18.409Z,1.80
2023-03-10T04:29:45.174Z,1.80
2023-03-10T04:32:12.075Z,1.90
2023-03-10T04:34:38.893Z,1.90
2023-03-10T04:37:05.814Z,1.90
2023-03-10T04:39:32.673Z,1.90
2023-03-10T04:41:59.419Z,1.90
2023-03-10T04:44:31.612Z,1.90
2023-03-10T04:46:59.555Z,1.90
2023-03-10T04:49:28.895Z,1.90
2023-03-10T04:51:55.912Z,2.00
2023-03-10T04:54:22.790Z,1.90
2023-03-10T04:56:49.637Z,1.90
2023-03-10T04:59:16.472Z,1.90
2023-03-10T05:01:43.308Z,1.90
2023-03-10T05:04:10.335Z,1.90
2023-03-10T05:06:37.100Z,2.00
2023-03-10T05:09:03.954Z,2.00
2023-03-10T05:11:32.011Z,2.00
2023-03-10T05:13:58.957Z,2.00
2023-03-10T05:16:26.015Z,1.90
2023-03-10T05:18:55.353Z,1.90
2023-03-10T05:21:22.129Z,2.00
2023-03-10T05:23:49.514Z,2.00
2023-03-10T05:26:16.944Z,2.00
2023-03-10T05:28:43.990Z,2.00
2023-03-10T05:31:14.285Z,2.00
2023-03-10T05:33:42.126Z,2.00
2023-03-10T05:36:11.798Z,2.00
2023-03-10T05:38:38.946Z,2.10
2023-03-10T05:41:12.247Z,2.00
2023-03-10T05:43:39.916Z,2.10
2023-03-10T05:46:07.810Z,2.10
2023-03-10T05:48:34.804Z,2.10
2023-03-10T05:51:02.676Z,2.10
2023-03-10T05:53:31.312Z,2.10
2023-03-10T05:55:58.402Z,2.10
2023-03-10T05:58:26.538Z,2.20
2023-03-10T06:00:53.672Z,2.20
2023-03-10T06:03:20.747Z,2.20
2023-03-10T06:05:47.628Z,2.20
2023-03-10T06:08:14.406Z,2.20
2023-03-10T06:10:41.234Z,2.20
2023-03-10T06:13:08.077Z,2.20
2023-03-10T06:15:37.747Z,2.20
2023-03-10T06:18:04.685Z,2.20
2023-03-10T06:20:31.743Z,2.20
2023-03-10T06:22:58.543Z,2.20
2023-03-10T06:25:25.460Z,2.20
2023-03-10T06:27:52.318Z,2.30
2023-03-10T06:30:19.214Z,2.20
2023-03-10T06:32:46.000Z,2.30
2023-03-10T06:35:14.571Z,2.30
2023-03-10T06:37:42.093Z,2.30
2023-03-10T06:40:11.150Z,2.40
2023-03-10T06:42:38.086Z,2.40
2023-03-10T06:45:05.286Z,2.40
2023-03-10T06:47:32.072Z,2.50
2023-03-10T06:50:00.106Z,2.50
2023-03-10T06:52:27.089Z,2.50
2023-03-10T06:54:54.084Z,2.50
2023-03-10T06:57:21.164Z,2.50
2023-03-10T06:59:48.044Z,2.60
2023-03-10T07:02:19.168Z,2.60
2023-03-10T07:04:46.883Z,2.60
2023-03-10T07:07:14.436Z,2.60
2023-03-10T07:09:43.690Z,2.60
2023-03-10T07:12:10.777Z,2.60
2023-03-10T07:14:37.560Z,2.60
2023-03-10T07:17:04.465Z,2.60
2023-03-10T07:19:31.267Z,2.60
2023-03-10T07:21:58.456Z,2.60
2023-03-10T07:24:25.195Z,2.70
2023-03-10T07:26:52.050Z,2.70
2023-03-10T07:29:18.856Z,2.70
2023-03-10T07:31:45.781Z,2.70
2023-03-10T07:34:12.610Z,2.70
2023-03-10T07:36:39.410Z,2.70
2023-03-10T07:39:06.224Z,2.80
2023-03-10T07:41:33.524Z,2.80
2023-03-10T07:44:00.293Z,2.90
2023-03-10T07:46:27.795Z,2.90
2023-03-10T07:48:56.338Z,2.90
2023-03-10T07:51:23.170Z,3.00
2023-03-10T07:53:49.920Z,3.00
2023-03-10T07:56:16.794Z,3.10
2023-03-10T07:58:49.906Z,3.10
2023-03-10T08:01:20.480Z,3.20
2023-03-10T08:03:47.738Z,3.20
2023-03-10T08:06:23.676Z,3.20
2023-03-10T08:08:51.281Z,3.30
2023-03-10T08:11:18.705Z,3.30
2023-03-10T08:13:45.766Z,3.30
2023-03-10T08:16:13.024Z,3.40
2023-03-10T08:18:40.197Z,3.50
2023-03-10T08:21:07.750Z,3.50
2023-03-10T08:23:35.668Z,3.60
2023-03-10T08:26:08.066Z,3.70
2023-03-10T08:28:35.521Z,3.80
2023-03-10T08:31:09.139Z,3.90
2023-03-10T08:33:36.266Z,3.90
2023-03-10T08:36:07.575Z,4.00
2023-03-10T08:38:35.102Z,4.00
2023-03-10T08:41:17.399Z,4.00
2023-03-10T08:43:44.252Z,4.10
2023-03-10T08:46:12.519Z,4.10
2023-03-10T08:48:42.679Z,4.10
2023-03-10T08:51:10.508Z,4.10
2023-03-10T08:53:38.636Z,4.20
2023-03-10T08:56:06.407Z,4.30
2023-03-10T08:58:33.651Z,4.40
2023-03-10T09:01:00.924Z,4.40
2023-03-10T09:03:30.291Z,4.60
2023-03-10T09:05:58.397Z,4.60
2023-03-10T09:08:27.522Z,4.70
2023-03-10T09:10:54.906Z,4.80
2023-03-10T09:13:22.235Z,4.90
2023-03-10T09:15:49.163Z,5.00
2023-03-10T09:18:16.692Z,5.00
2023-03-10T09:20:44.854Z,5.00
2023-03-10T09:23:16.222Z,5.00
2023-03-10T09:25:43.351Z,4.90
2023-03-10T09:28:11.550Z,4.70
2023-03-10T09:30:40.670Z,4.70
2023-03-10T09:33:13.582Z,4.70
2023-03-10T09:35:44.686Z,4.80
2023-03-10T09:38:15.691Z,5.00
2023-03-10T09:41:06.219Z,5.10
2023-03-10T09:43:39.152Z,5.20
2023-03-10T09:46:48.516Z,5.40
2023-03-10T09:49:32.106Z,5.60
2023-03-10T09:52:01.449Z,5.80
2023-03-10T09:54:57.293Z,5.80
2023-03-10T09:57:24.508Z,6.00
2023-03-10T09:59:57.546Z,6.20
2023-03-10T10:02:31.111Z,6.30
2023-03-10T10:05:03.742Z,6.30
2023-03-10T10:07:45.357Z,6.30
2023-03-10T10:10:19.774Z,6.30
2023-03-10T10:12:49.966Z,6.50
2023-03-10T10:15:19.913Z,6.50
2023-03-10T10:18:16.114Z,6.40
2023-03-10T10:20:56.917Z,6.30
2023-03-10T10:23:40.807Z,6.20
2023-03-10T10:26:18.206Z,6.30
2023-03-10T10:29:02.597Z,6.40
2023-03-10T10:31:31.919Z,6.50
2023-03-10T10:34:03.602Z,6.50
2023-03-10T10:36:52.001Z,6.50
2023-03-10T10:39:21.822Z,6.50
2023-03-10T10:41:48.657Z,6.50
2023-03-10T10:44:17.297Z,6.60
2023-03-10T10:46:55.299Z,6.60
2023-03-10T10:49:27.714Z,6.60
2023-03-10T10:52:17.933Z,6.70
2023-03-10T10:54:51.900Z,6.70
2023-03-10T10:57:31.435Z,6.80
2023-03-10T11:00:15.908Z,6.90
2023-03-10T11:02:42.787Z,6.90
2023-03-10T11:05:15.587Z,6.90
2023-03-10T11:07:42.400Z,6.90
2023-03-10T11:10:18.437Z,6.90
2023-03-10T11:13:05.691Z,6.90
2023-03-10T11:15:37.686Z,7.00
2023-03-10T11:18:22.400Z,6.90
2023-03-10T11:20:59.671Z,6.90
2023-03-10T11:23:33.837Z,6.90
2023-03-10T11:26:24.679Z,6.80
2023-03-10T11:29:22.889Z,6.70
2023-03-10T11:32:19.345Z,6.80
2023-03-10T11:34:52.282Z,6.80
2023-03-10T11:37:37.057Z,6.90
2023-03-10T11:40:22.572Z,6.90
2023-03-10T11:43:00.473Z,6.90
2023-03-10T11:45:50.199Z,6.90
2023-03-10T11:48:29.234Z,6.90
2023-03-10T11:51:04.537Z,6.80
2023-03-10T11:53:38.580Z,6.80
2023-03-10T11:56:08.037Z,6.80
2023-03-10T11:59:06.766Z,6.80
2023-03-10T12:01:48.204Z,6.80
2023-03-10T12:04:25.083Z,6.80
2023-03-10T12:07:07.179Z,6.90
2023-03-10T12:09:42.992Z,6.90
2023-03-10T12:12:13.312Z,6.80
2023-03-10T12:14:43.117Z,6.80
2023-03-10T12:17:15.233Z,6.80
2023-03-10T12:20:12.856Z,6.80
2023-03-10T12:22:39.624Z,6.90
2023-03-10T12:25:29.170Z,6.90
2023-03-10T12:28:12.422Z,6.90
2023-03-10T12:31:03.603Z,7.00
2023-03-10T12:33:33.346Z,7.00
2023-03-10T12:36:14.963Z,7.00
2023-03-10T12:38:54.690Z,7.10
2023-03-10T12:41:27.185Z,7.00
2023-03-10T12:44:21.614Z,6.90
2023-03-10T12:47:15.147Z,6.90
2023-03-10T12:49:41.914Z,6.90
2023-03-10T12:52:44.935Z,6.80
2023-03-10T12:55:25.461Z,6.70
2023-03-10T12:58:15.456Z,6.70
2023-03-10T13:00:55.610Z,6.80
2023-03-10T13:03:36.088Z,6.90
2023-03-10T13:06:13.184Z,7.00
2023-03-10T13:08:39.946Z,7.10
2023-03-10T13:11:18.827Z,7.20
2023-03-10T13:13:58.505Z,7.30
2023-03-10T13:16:25.569Z,7.30
2023-03-10T13:18:54.185Z,7.40
2023-03-10T13:21:38.849Z,7.50
2023-03-10T13:24:35.919Z,7.50
2023-03-10T13:27:19.498Z,7.50
2023-03-10T13:30:13.549Z,7.50
2023-03-10T13:32:40.753Z,7.50
2023-03-10T13:35:38.571Z,7.40
2023-03-10T13:38:14.094Z,7.30
2023-03-10T13:41:00.800Z,7.30
2023-03-10T13:43:39.257Z,7.30
2023-03-10T13:46:14.404Z,7.40
2023-03-10T13:48:42.237Z,7.40
2023-03-10T13:51:25.184Z,7.50
2023-03-10T13:53:54.229Z,7.60
2023-03-10T13:56:25.634Z,7.50
2023-03-10T13:58:56.014Z,7.40
2023-03-10T14:01:32.756Z,7.20
2023-03-10T14:04:02.296Z,7.00
2023-03-10T14:06:29.984Z,7.00
2023-03-10T14:08:56.934Z,7.00
2023-03-10T14:11:34.414Z,7.00
2023-03-10T14:14:02.560Z,6.80
2023-03-10T14:16:57.357Z,6.60
2023-03-10T14:19:43.330Z,6.30
2023-03-10T14:22:31.104Z,6.30
2023-03-10T14:25:00.485Z,6.30
2023-03-10T14:27:32.971Z,6.00
2023-03-10T14:30:41.464Z,5.80
2023-03-10T14:33:43.603Z,5.80
2023-03-10T14:36:16.083Z,5.80
2023-03-10T14:38:43.301Z,5.80
2023-03-10T14:41:14.709Z,5.60
2023-03-10T14:43:42.334Z,5.40
2023-03-10T14:46:11.816Z,5.40
2023-03-10T14:48:40.202Z,5.40
2023-03-10T14:51:07.729Z,5.40
2023-03-10T14:53:34.747Z,5.30
2023-03-10T14:56:02.448Z,5.20
2023-03-10T14:58:36.882Z,5.20
2023-03-10T15:01:05.860Z,5.10
2023-03-10T15:03:32.702Z,4.80
2023-03-10T15:05:59.538Z,4.60
2023-03-10T15:08:28.067Z,4.50
2023-03-10T15:10:56.315Z,4.60
2023-03-10T15:13:24.493Z,4.70
2023-03-10T15:15:51.743Z,4.80
2023-03-10T15:18:23.419Z,5.00
2023-03-10T15:20:53.670Z,5.00
2023-03-10T15:23:20.607Z,4.90
2023-03-10T15:25:47.723Z,4.80
2023-03-10T15:28:14.640Z,4.70
2023-03-10T15:30:42.156Z,4.80
2023-03-10T15:33:09.029Z,4.80
2023-03-10T15:35:36.338Z,4.80
2023-03-10T15:38:03.588Z,4.90
2023-03-10T15:40:31.923Z,4.80
2023-03-10T15:43:02.571Z,4.70
2023-03-10T15:45:31.196Z,4.80
2023-03-10T15:47:59.145Z,4.80
2023-03-10T15:50:26.255Z,4.70
2023-03-10T15:52:55.684Z,4.70
2023-03-10T15:55:23.240Z,4.70
2023-03-10T15:57:50.330Z,4.70
2023-03-10T16:00:21.776Z,4.70
2023-03-10T16:02:49.735Z,4.70
2023-03-10T16:05:17.761Z,4.70
2023-03-10T16:07:47.266Z,4.70
2023-03-10T16:10:17.189Z,4.70
2023-03-10T16:12:44.631Z,4.70
2023-03-10T16:15:12.475Z,4.70
2023-03-10T16:17:39.606Z,4.60
2023-03-10T16:20:08.434Z,4.70
2023-03-10T16:22:35.392Z,4.60
2023-03-10T16:25:02.179Z,4.60
2023-03-10T16:27:28.937Z,4.40
2023-03-10T16:29:55.795Z,4.20
2023-03-10T16:32:22.691Z,4.00
2023-03-10T16:34:49.475Z,3.90
2023-03-10T16:37:16.218Z,3.90
2023-03-10T16:39:43.076Z,3.90
2023-03-10T16:42:09.955Z,3.90
2023-03-10T16:44:36.705Z,4.00
2023-03-10T16:47:06.736Z,4.00
2023-03-10T16:49:34.502Z,4.00
2023-03-10T16:52:01.317Z,4.10
2023-03-10T16:54:28.302Z,4.00
2023-03-10T16:56:55.109Z,3.90
2023-03-10T16:59:24.138Z,3.70
2023-03-10T17:01:51.651Z,3.60
2023-03-10T17:04:19.534Z,3.60
2023-03-10T17:06:47.197Z,3.60
2023-03-10T17:09:15.399Z,3.60
2023-03-10T17:11:47.096Z,3.60
2023-03-10T17:14:16.475Z,3.50
2023-03-10T17:16:45.251Z,3.50
2023-03-10T17:19:15.880Z,3.40
2023-03-10T17:21:45.283Z,3.40
2023-03-10T17:24:13.626Z,3.40
2023-03-10T17:26:40.873Z,3.40
2023-03-10T17:29:08.058Z,3.40
2023-03-10T17:31:35.652Z,3.40
2023-03-10T17:34:08.286Z,3.40
2023-03-10T17:36:41.044Z,3.40
2023-03-10T17:39:07.984Z,3.40
2023-03-10T17:41:36.106Z,3.40
2023-03-10T17:44:03.033Z,3.50
2023-03-10T17:46:30.130Z,3.50
2023-03-10T17:48:57.637Z,3.50
2023-03-10T17:51:27.474Z,3.50
2023-03-10T17:53:56.961Z,3.50
2023-03-10T17:56:25.451Z,3.50
2023-03-10T17:58:56.942Z,3.50
2023-03-10T18:01:26.275Z,3.40
2023-03-10T18:03:57.143Z,3.40
2023-03-10T18:06:28.432Z,3.30
2023-03-10T18:08:57.025Z,3.10
2023-03-10T18:11:24.728Z,2.70
2023-03-10T18:13:51.806Z,2.60
2023-03-10T18:16:24.334Z,2.50
2023-03-10T18:18:51.658Z,2.50
2023-03-10T18:21:19.729Z,2.60
2023-03-10T18:23:48.600Z,2.70
2023-03-10T18:26:22.270Z,2.70
2023-03-10T18:28:49.109Z,2.80
2023-03-10T18:31:21.988Z,2.80
2023-03-10T18:33:49.400Z,2.80
2023-03-10T18:36:17.707Z,2.70
2023-03-10T18:38:45.576Z,2.70
2023-03-10T18:41:12.882Z,2.70
2023-03-10T18:43:39.783Z,2.80
2023-03-10T18:46:06.743Z,2.80
2023-03-10T18:48:33.722Z,2.80
2023-03-10T18:51:00.510Z,2.80
2023-03-10T18:53:27.631Z,2.80
2023-03-10T18:55:54.931Z,2.80
2023-03-10T18:58:22.268Z,2.80
2023-03-10T19:00:49.136Z,2.70
2023-03-10T19:03:16.545Z,2.80
2023-03-10T19:05:45.396Z,2.70
2023-03-10T19:08:12.131Z,2.70
2023-03-10T19:10:39.530Z,2.70
2023-03-10T19:13:07.310Z,2.70
2023-03-10T19:15:37.685Z,2.70
2023-03-10T19:18:04.701Z,2.80
2023-03-10T19:20:31.529Z,2.80
2023-03-10T19:22:58.370Z,2.80
2023-03-10T19:25:25.431Z,2.80
2023-03-10T19:27:54.278Z,2.80
2023-03-10T19:30:21.308Z,2.80
2023-03-10T19:32:48.821Z,2.80
2023-03-10T19:35:17.002Z,2.70
2023-03-10T19:37:43.979Z,2.60
2023-03-10T19:40:16.750Z,2.60
2023-03-10T19:42:43.559Z,2.60
2023-03-10T19:45:12.373Z,2.60
2023-03-10T19:47:39.591Z,2.70
2023-03-10T19:50:10.676Z,2.80
2023-03-10T19:52:37.727Z,2.70
2023-03-10T19:55:06.052Z,2.70
2023-03-10T19:57:35.569Z,2.80
2023-03-10T20:00:04.920Z,2.80
2023-03-10T20:02:32.535Z,2.80
2023-03-10T20:04:59.375Z,2.80
2023-03-10T20:07:26.261Z,2.80
2023-03-10T20:09:53.024Z,2.70
2023-03-10T20:12:19.732Z,2.80
2023-03-10T20:14:46.562Z,2.80
2023-03-10T20:17:13.352Z,2.80
2023-03-10T20:19:41.331Z,2.80
2023-03-10T20:22:10.990Z,2.80
2023-03-10T20:24:39.234Z,2.70
2023-03-10T20:27:05.910Z,2.80
2023-03-10T20:29:32.586Z,2.80
2023-03-10T20:31:59.720Z,2.80
2023-03-10T20:34:26.437Z,2.70
2023-03-10T20:36:53.232Z,2.70
2023-03-10T20:39:20.112Z,2.70
2023-03-10T20:41:46.851Z,2.70
2023-03-10T20:44:13.959Z,2.60
2023-03-10T20:46:42.599Z,2.60
2023-03-10T20:49:11.933Z,2.70
2023-03-10T20:51:40.005Z,2.70
2023-03-10T20:54:07.817Z,2.70
2023-03-10T20:56:34.563Z,2.60
2023-03-10T20:59:01.349Z,2.60
2023-03-10T21:01:29.305Z,2.60
2023-03-10T21:03:56.768Z,2.60
2023-03-10T21:06:25.455Z,2.60
2023-03-10T21:08:52.812Z,2.50
2023-03-10T21:11:19.754Z,2.50
2023-03-10T21:13:46.499Z,2.50
2023-03-10T21:16:13.462Z,2.50
2023-03-10T21:18:40.589Z,2.50
2023-03-10T21:21:08.300Z,2.50
2023-03-10T21:23:37.147Z,2.60
2023-03-10T21:26:13.776Z,2.60
2023-03-10T21:28:41.159Z,2.60
2023-03-10T21:31:08.359Z,2.50
2023-03-10T21:33:35.363Z,2.50
2023-03-10T21:36:02.632Z,2.50
2023-03-10T21:38:29.520Z,2.50
2023-03-10T21:40:56.276Z,2.50
2023-03-10T21:43:23.108Z,2.50
2023-03-10T21:45:50.170Z,2.60
2023-03-10T21:48:16.918Z,2.50
2023-03-10T21:50:43.890Z,2.60
2023-03-10T21:53:12.126Z,2.60
2023-03-10T21:55:39.000Z,2.50
2023-03-10T21:58:05.860Z,2.50
2023-03-10T22:00:32.700Z,2.40
2023-03-10T22:02:59.726Z,2.40
2023-03-10T22:05:26.698Z,2.40
2023-03-10T22:07:53.523Z,2.40
2023-03-10T22:10:20.241Z,2.50
2023-03-10T22:12:47.267Z,2.50
2023-03-10T22:15:20.443Z,2.50
2023-03-10T22:17:47.631Z,2.50
2023-03-10T22:20:16.580Z,2.50
2023-03-10T22:22:43.428Z,2.50
2023-03-10T22:25:10.773Z,2.50
2023-03-10T22:27:37.621Z,2.50
2023-03-10T22:30:05.025Z,2.50
2023-03-10T22:32:31.789Z,2.50
2023-03-10T22:35:01.938Z,2.40
2023-03-10T22:37:28.725Z,2.40
2023-03-10T22:39:55.513Z,2.40
2023-03-10T22:42:22.297Z,2.40
2023-03-10T22:44:49.195Z,2.40
2023-03-10T22:47:17.402Z,2.40
2023-03-10T22:49:44.214Z,2.30
2023-03-10T22:52:13.351Z,2.30
2023-03-10T22:54:40.097Z,2.20
2023-03-10T22:57:06.919Z,2.20
2023-03-10T22:59:33.675Z,2.10
2023-03-10T23:02:00.444Z,2.00
2023-03-10T23:04:29.237Z,1.90
2023-03-10T23:06:55.978Z,1.90
2023-03-10T23:09:22.787Z,1.80
2023-03-10T23:11:49.632Z,1.80
2023-03-10T23:14:16.523Z,1.60
2023-03-10T23:16:43.370Z,1.60
2023-03-10T23:19:10.212Z,1.60
2023-03-10T23:21:37.055Z,1.70
2023-03-10T23:24:07.017Z,1.70
2023-03-10T23:26:33.857Z,1.70
2023-03-10T23:29:00.725Z,1.60
2023-03-10T23:31:27.578Z,1.50
2023-03-10T23:33:54.489Z,1.50
2023-03-10T23:36:21.274Z,1.30
2023-03-10T23:38:48.054Z,1.30
2023-03-10T23:41:14.936Z,1.30
2023-03-10T23:43:41.703Z,1.30
2023-03-10T23:46:08.927Z,1.30
2023-03-10T23:48:36.006Z,1.20
2023-03-10T23:51:03.090Z,1.20
2023-03-10T23:53:30.458Z,1.20
2023-03-10T23:55:57.308Z,1.30
2023-03-10T23:58:24.666Z,1.10
